createdAt,value
2023-08-15T00:02:07.975Z,13.95
2023-08-15T00:04:34.129Z,14.07
2023-08-15T00:07:00.272Z,14.11
2023-08-15T00:09:26.457Z,14.06
2023-08-15T00:11:52.608Z,13.95
2023-08-15T00:14:18.814Z,13.83
2023-08-15T00:16:45.119Z,13.82
2023-08-15T00:19:11.656Z,13.86
2023-08-15T00:21:37.813Z,13.76
2023-08-15T00:24:03.974Z,14.05
2023-08-15T00:26:30.150Z,14.08
2023-08-15T00:28:56.322Z,14.02
2023-08-15T00:31:22.517Z,13.93
2023-08-15T00:33:48.672Z,13.93
2023-08-15T00:36:14.822Z,13.79
2023-08-15T00:38:40.992Z,13.88
2023-08-15T00:41:07.171Z,13.79
2023-08-15T00:43:33.334Z,13.83
2023-08-15T00:45:59.545Z,13.86
2023-08-15T00:48:25.763Z,13.77
2023-08-15T00:50:51.913Z,13.77
2023-08-15T00:53:18.063Z,13.72
2023-08-15T00:55:44.225Z,13.80
2023-08-15T00:58:10.374Z,13.89
2023-08-15T01:00:36.520Z,13.64
2023-08-15T01:03:02.719Z,13.45
2023-08-15T01:05:28.912Z,13.30
2023-08-15T01:07:55.051Z,13.27
2023-08-15T01:10:21.223Z,13.22
2023-08-15T01:12:47.398Z,13.33
2023-08-15T01:15:13.560Z,13.42
2023-08-15T01:17:39.744Z,13.41
2023-08-15T01:20:05.930Z,13.27
2023-08-15T01:22:32.087Z,13.12
2023-08-15T01:24:58.251Z,13.18
2023-08-15T01:27:24.420Z,13.12
2023-08-15T01:29:50.667Z,13.07
2023-08-15T01:32:16.862Z,13.00
2023-08-15T01:34:43.025Z,13.08
2023-08-15T01:37:09.188Z,13.02
2023-08-15T01:39:35.347Z,12.97
2023-08-15T01:42:01.521Z,13.00
2023-08-15T01:44:27.676Z,12.89
2023-08-15T01:46:53.831Z,13.02
2023-08-15T01:49:19.997Z,12.90
2023-08-15T01:51:46.198Z,12.74
2023-08-15T01:54:12.438Z,12.94
2023-08-15T01:56:38.599Z,12.75
2023-08-15T01:59:04.758Z,13.01
2023-08-15T02:01:30.965Z,13.24
2023-08-15T02:03:57.170Z,13.13
2023-08-15T02:06:23.331Z,13.16
2023-08-15T02:08:49.488Z,12.85
2023-08-15T02:11:15.685Z,12.90
2023-08-15T02:13:41.867Z,12.92
2023-08-15T02:16:08.045Z,12.84
2023-08-15T02:18:34.250Z,12.77
2023-08-15T02:21:00.419Z,12.80
2023-08-15T02:23:26.588Z,12.70
2023-08-15T02:25:52.757Z,12.79
2023-08-15T02:28:18.975Z,12.60
2023-08-15T02:30:45.147Z,12.49
2023-08-15T02:33:11.299Z,12.42
2023-08-15T02:35:37.456Z,12.46
2023-08-15T02:38:03.648Z,12.54
2023-08-15T02:40:29.817Z,12.47
2023-08-15T02:42:56.018Z,12.41
2023-08-15T02:45:22.168Z,12.47
2023-08-15T02:47:48.402Z,12.47
2023-08-15T02:50:14.576Z,12.60
2023-08-15T02:52:40.733Z,12.56
2023-08-15T02:55:06.892Z,12.43
2023-08-15T02:57:33.063Z,12.33
2023-08-15T02:59:59.225Z,12.41
2023-08-15T03:02:25.442Z,12.51
2023-08-15T03:04:51.660Z,12.51
2023-08-15T03:07:17.824Z,12.50
2023-08-15T03:09:43.991Z,12.22
2023-08-15T03:12:10.172Z,12.23
2023-08-15T03:14:36.321Z,12.22
2023-08-15T03:17:02.486Z,12.21
2023-08-15T03:19:28.628Z,12.14
2023-08-15T03:21:54.776Z,12.26
2023-08-15T03:24:20.911Z,12.24
2023-08-15T03:26:47.099Z,12.32
2023-08-15T03:29:13.277Z,12.24
2023-08-15T03:31:39.448Z,12.17
2023-08-15T03:34:05.647Z,12.18
2023-08-15T03:36:31.792Z,12.22
2023-08-15T03:38:57.948Z,12.15
2023-08-15T03:41:24.105Z,12.28
2023-08-15T03:43:50.261Z,12.28
2023-08-15T03:46:16.517Z,12.32
2023-08-15T03:48:42.753Z,12.37
2023-08-15T03:51:10.972Z,12.32
2023-08-15T03:53:37.333Z,12.12
2023-08-15T03:56:03.487Z,12.00
2023-08-15T03:58:29.646Z,11.88
2023-08-15T04:00:55.806Z,11.88
2023-08-15T04:03:21.979Z,11.80
2023-08-15T04:05:48.134Z,11.98
2023-08-15T04:08:14.312Z,12.00
2023-08-15T04:10:40.500Z,11.85
2023-08-15T04:13:06.696Z,11.95
2023-08-15T04:15:32.861Z,11.88
2023-08-15T04:17:59.140Z,12.01
2023-08-15T04:20:25.365Z,12.09
2023-08-15T04:22:51.517Z,12.02
2023-08-15T04:25:17.686Z,11.94
2023-08-15T04:27:43.875Z,11.87
2023-08-15T04:30:10.050Z,11.84
2023-08-15T04:32:36.261Z,11.84
2023-08-15T04:35:02.467Z,11.89
2023-08-15T04:37:28.633Z,11.96
2023-08-15T04:39:54.890Z,12.07
2023-08-15T04:42:21.064Z,12.09
2023-08-15T04:44:47.214Z,12.28
2023-08-15T04:47:13.365Z,12.02
2023-08-15T04:49:39.525Z,12.20
2023-08-15T04:52:05.703Z,12.07
2023-08-15T04:54:31.857Z,12.13
2023-08-15T04:56:58.023Z,12.06
2023-08-15T04:59:24.191Z,12.21
2023-08-15T05:01:50.420Z,12.25
2023-08-15T05:04:16.618Z,12.02
2023-08-15T05:06:42.796Z,12.04
2023-08-15T05:09:08.971Z,12.11
2023-08-15T05:11:35.134Z,12.00
2023-08-15T05:14:01.305Z,12.02
2023-08-15T05:16:27.461Z,12.01
2023-08-15T05:18:53.616Z,12.05
2023-08-15T05:21:19.798Z,12.14
2023-08-15T05:23:45.943Z,12.07
2023-08-15T05:26:12.107Z,12.16
2023-08-15T05:28:38.264Z,12.26
2023-08-15T05:31:04.547Z,12.36
2023-08-15T05:33:30.732Z,12.24
2023-08-15T05:35:56.891Z,12.43
2023-08-15T05:38:23.032Z,12.48
2023-08-15T05:40:49.186Z,12.34
2023-08-15T05:43:15.343Z,12.30
2023-08-15T05:45:41.557Z,12.38
2023-08-15T05:48:10.215Z,12.48
2023-08-15T05:50:38.114Z,12.62
2023-08-15T05:53:04.297Z,12.68
2023-08-15T05:55:30.461Z,12.55
2023-08-15T05:57:57.814Z,12.64
2023-08-15T06:00:24.062Z,12.56
2023-08-15T06:02:50.270Z,12.40
2023-08-15T06:05:16.448Z,12.47
2023-08-15T06:07:42.611Z,12.50
2023-08-15T06:10:08.769Z,12.60
2023-08-15T06:12:34.947Z,12.55
2023-08-15T06:15:01.109Z,12.55
2023-08-15T06:17:27.296Z,12.57
2023-08-15T06:19:53.491Z,12.51
2023-08-15T06:22:19.637Z,12.67
2023-08-15T06:24:45.812Z,12.93
2023-08-15T06:27:11.962Z,13.14
2023-08-15T06:29:38.113Z,13.30
2023-08-15T06:32:04.276Z,13.39
2023-08-15T06:34:30.489Z,13.33
2023-08-15T06:36:56.680Z,13.40
2023-08-15T06:39:22.841Z,13.46
2023-08-15T06:41:49.012Z,13.50
2023-08-15T06:44:15.197Z,13.65
2023-08-15T06:46:41.433Z,13.91
2023-08-15T06:49:07.615Z,14.02
2023-08-15T06:51:33.780Z,14.22
2023-08-15T06:54:00.408Z,14.30
2023-08-15T06:56:26.639Z,14.26
2023-08-15T06:58:52.828Z,14.32
2023-08-15T07:01:19.115Z,14.59
2023-08-15T07:03:45.494Z,14.78
2023-08-15T07:06:11.685Z,15.25
2023-08-15T07:08:37.856Z,15.46
2023-08-15T07:11:06.196Z,15.42
2023-08-15T07:13:32.666Z,15.63
2023-08-15T07:15:59.035Z,15.50
2023-08-15T07:18:25.381Z,14.52
2023-08-15T07:20:51.580Z,14.48
2023-08-15T07:23:17.748Z,14.92
2023-08-15T07:25:43.963Z,15.32
2023-08-15T07:28:10.113Z,15.57
2023-08-15T07:30:36.272Z,15.88
2023-08-15T07:33:02.567Z,16.21
2023-08-15T07:35:28.801Z,16.63
2023-08-15T07:37:55.012Z,16.73
2023-08-15T07:40:21.169Z,17.04
2023-08-15T07:42:47.345Z,17.20
2023-08-15T07:45:14.084Z,17.41
2023-08-15T07:47:40.302Z,17.55
2023-08-15T07:50:06.476Z,17.57
2023-08-15T07:52:32.657Z,17.62
2023-08-15T07:54:58.815Z,17.66
2023-08-15T07:57:25.146Z,17.81
2023-08-15T07:59:51.287Z,17.95
2023-08-15T08:02:17.438Z,18.32
2023-08-15T08:04:43.619Z,18.50
2023-08-15T08:07:09.824Z,18.70
2023-08-15T08:09:35.993Z,18.54
2023-08-15T08:12:02.171Z,18.65
2023-08-15T08:14:28.330Z,18.78
2023-08-15T08:16:54.483Z,18.68
2023-08-15T08:19:20.653Z,18.65
2023-08-15T08:21:46.840Z,18.73
2023-08-15T08:24:12.998Z,19.04
2023-08-15T08:26:39.168Z,19.36
2023-08-15T08:29:05.332Z,19.52
2023-08-15T08:31:31.515Z,19.40
2023-08-15T08:33:57.686Z,19.08
2023-08-15T08:36:23.865Z,19.58
2023-08-15T08:38:50.044Z,19.98
2023-08-15T08:41:16.210Z,19.84
2023-08-15T08:43:42.377Z,20.10
2023-08-15T08:46:08.614Z,20.22
2023-08-15T08:48:36.445Z,19.52
2023-08-15T08:51:03.527Z,19.60
2023-08-15T08:53:29.694Z,19.47
2023-08-15T08:55:55.961Z,19.69
2023-08-15T08:58:22.139Z,19.57
2023-08-15T09:00:48.327Z,20.00
2023-08-15T09:03:14.625Z,19.67
2023-08-15T09:05:40.921Z,19.98
2023-08-15T09:08:07.099Z,19.57
2023-08-15T09:10:33.245Z,19.72
2023-08-15T09:12:59.415Z,19.57
2023-08-15T09:15:25.586Z,20.12
2023-08-15T09:17:51.792Z,19.83
2023-08-15T09:20:17.972Z,20.52
2023-08-15T09:22:44.151Z,20.88
2023-08-15T09:25:10.295Z,21.26
2023-08-15T09:27:36.477Z,21.45
2023-08-15T09:30:02.649Z,21.57
2023-08-15T09:32:28.917Z,21.62
2023-08-15T09:34:55.247Z,21.85
2023-08-15T09:37:21.864Z,22.10
2023-08-15T09:39:48.254Z,22.16
2023-08-15T09:42:14.416Z,22.25
2023-08-15T09:44:40.704Z,22.50
2023-08-15T09:47:06.951Z,22.26
2023-08-15T09:49:33.147Z,22.87
2023-08-15T09:51:59.296Z,22.97
2023-08-15T09:54:25.515Z,22.62
2023-08-15T09:56:51.685Z,22.69
2023-08-15T09:59:18.837Z,22.31
2023-08-15T10:01:45.056Z,22.25
2023-08-15T10:04:11.208Z,21.91
2023-08-15T10:06:37.379Z,21.88
2023-08-15T10:09:03.530Z,22.29
2023-08-15T10:11:29.679Z,22.51
2023-08-15T10:13:55.846Z,21.77
2023-08-15T10:16:22.191Z,22.39
2023-08-15T10:18:48.398Z,22.68
2023-08-15T10:21:14.572Z,21.88
2023-08-15T10:23:40.733Z,22.54
2023-08-15T10:26:06.905Z,22.39
2023-08-15T10:28:33.082Z,22.83
2023-08-15T10:30:59.369Z,22.88
2023-08-15T10:33:25.567Z,23.13
2023-08-15T10:35:51.725Z,23.58
2023-08-15T10:38:17.885Z,22.90
2023-08-15T10:40:44.100Z,22.58
2023-08-15T10:43:10.271Z,23.23
2023-08-15T10:45:36.461Z,22.65
2023-08-15T10:48:05.002Z,22.28
2023-08-15T10:50:32.281Z,22.37
2023-08-15T10:52:58.459Z,22.54
2023-08-15T10:55:24.607Z,22.32
2023-08-15T10:57:50.767Z,21.92
2023-08-15T11:00:16.927Z,21.67
2023-08-15T11:02:43.135Z,21.52
2023-08-15T11:05:09.389Z,21.20
2023-08-15T11:07:35.580Z,21.18
2023-08-15T11:10:01.740Z,21.16
2023-08-15T11:12:27.908Z,21.47
2023-08-15T11:14:54.080Z,21.19
2023-08-15T11:17:20.442Z,21.42
2023-08-15T11:19:46.792Z,21.55
2023-08-15T11:22:12.950Z,21.69
2023-08-15T11:24:39.146Z,21.54
2023-08-15T11:27:05.307Z,21.69
2023-08-15T11:29:31.477Z,22.35
2023-08-15T11:31:57.700Z,22.59
2023-08-15T11:34:23.948Z,22.48
2023-08-15T11:36:50.098Z,22.14
2023-08-15T11:39:16.302Z,22.25
2023-08-15T11:41:42.463Z,22.21
2023-08-15T11:44:08.638Z,22.41
2023-08-15T11:46:51.221Z,22.22
2023-08-15T11:49:20.495Z,22.21
2023-08-15T11:51:46.676Z,21.97
2023-08-15T11:54:12.837Z,22.40
2023-08-15T11:56:39.000Z,22.00
2023-08-15T11:59:05.180Z,22.08
2023-08-15T12:01:31.413Z,22.37
2023-08-15T12:03:57.643Z,22.32
2023-08-15T12:06:23.808Z,22.23
2023-08-15T12:08:49.974Z,23.01
2023-08-15T12:11:16.137Z,22.91
2023-08-15T12:13:42.313Z,23.59
2023-08-15T12:16:08.498Z,23.07
2023-08-15T12:18:34.704Z,23.52
2023-08-15T12:21:00.880Z,23.46
2023-08-15T12:23:28.621Z,23.08
2023-08-15T12:25:55.455Z,23.37
2023-08-15T12:28:21.623Z,23.25
2023-08-15T12:30:47.798Z,23.13
2023-08-15T12:33:16.077Z,23.54
2023-08-15T12:35:48.391Z,23.88
2023-08-15T12:38:15.322Z,24.04
2023-08-15T12:40:41.485Z,24.41
2023-08-15T12:43:07.655Z,24.67
2023-08-15T12:45:33.845Z,24.60
2023-08-15T12:48:00.081Z,24.65
2023-08-15T12:50:26.303Z,24.87
2023-08-15T12:52:52.467Z,25.00
2023-08-15T12:55:18.616Z,25.08
2023-08-15T12:57:44.785Z,24.96
2023-08-15T13:00:10.947Z,24.97
2023-08-15T13:02:37.120Z,24.81
2023-08-15T13:05:04.843Z,24.55
2023-08-15T13:07:31.118Z,24.74
2023-08-15T13:09:57.277Z,24.54
2023-08-15T13:12:23.585Z,24.00
2023-08-15T13:14:49.938Z,23.18
2023-08-15T13:17:16.142Z,22.91
2023-08-15T13:19:42.319Z,22.70
2023-08-15T13:22:08.475Z,22.50
2023-08-15T13:24:34.673Z,22.22
2023-08-15T13:27:00.832Z,22.05
2023-08-15T13:29:27.016Z,21.77
2023-08-15T13:31:53.170Z,21.71
2023-08-15T13:34:19.321Z,21.61
2023-08-15T13:36:47.731Z,21.85
2023-08-15T13:39:13.884Z,21.98
2023-08-15T13:41:40.050Z,22.04
2023-08-15T13:44:06.242Z,22.10
2023-08-15T13:46:32.446Z,22.15
2023-08-15T13:48:58.668Z,22.29
2023-08-15T13:51:24.835Z,22.24
2023-08-15T13:53:50.991Z,22.22
2023-08-15T13:56:17.135Z,21.46
2023-08-15T13:58:43.297Z,21.03
2023-08-15T14:01:09.468Z,20.95
2023-08-15T14:03:35.710Z,21.01
2023-08-15T14:06:01.892Z,20.87
2023-08-15T14:08:28.107Z,20.99
2023-08-15T14:10:54.249Z,21.09
2023-08-15T14:13:20.490Z,21.50
2023-08-15T14:15:46.686Z,21.67
2023-08-15T14:18:12.960Z,21.95
2023-08-15T14:20:39.152Z,22.15
2023-08-15T14:23:05.319Z,22.22
2023-08-15T14:25:31.462Z,22.23
2023-08-15T14:27:57.612Z,22.44
2023-08-15T14:30:23.769Z,22.37
2023-08-15T14:32:49.959Z,22.21
2023-08-15T14:35:16.238Z,22.03
2023-08-15T14:37:42.430Z,22.12
2023-08-15T14:40:08.599Z,21.89
2023-08-15T14:42:34.765Z,21.69
2023-08-15T14:45:00.937Z,21.25
2023-08-15T14:47:27.136Z,20.92
2023-08-15T14:49:53.285Z,20.57
2023-08-15T14:52:19.505Z,20.48
2023-08-15T14:54:45.706Z,20.29
2023-08-15T14:57:11.853Z,20.24
2023-08-15T14:59:38.060Z,20.34
2023-08-15T15:02:04.312Z,20.04
2023-08-15T15:04:31.026Z,20.16
2023-08-15T15:06:57.208Z,20.21
2023-08-15T15:09:23.403Z,20.41
2023-08-15T15:11:49.591Z,20.66
2023-08-15T15:14:16.776Z,20.76
2023-08-15T15:16:43.905Z,20.98
2023-08-15T15:19:10.100Z,21.03
2023-08-15T15:21:36.257Z,21.41
2023-08-15T15:24:02.550Z,21.63
2023-08-15T15:26:28.701Z,21.59
2023-08-15T15:28:54.969Z,21.93
2023-08-15T15:31:21.214Z,22.09
2023-08-15T15:33:47.406Z,22.24
2023-08-15T15:36:13.573Z,22.33
2023-08-15T15:38:39.744Z,22.41
2023-08-15T15:41:05.925Z,22.52
2023-08-15T15:43:32.078Z,22.60
2023-08-15T15:45:58.289Z,22.54
2023-08-15T15:48:24.510Z,22.39
2023-08-15T15:50:50.674Z,22.41
2023-08-15T15:53:16.829Z,22.20
2023-08-15T15:55:42.994Z,22.16
2023-08-15T15:58:09.145Z,21.99
2023-08-15T16:00:35.312Z,21.89
2023-08-15T16:03:01.509Z,21.41
2023-08-15T16:05:27.747Z,21.27
2023-08-15T16:07:54.128Z,21.25
2023-08-15T16:10:20.285Z,21.16
2023-08-15T16:12:46.445Z,21.20
2023-08-15T16:15:12.631Z,21.39
2023-08-15T16:17:38.887Z,21.25
2023-08-15T16:20:05.139Z,21.29
2023-08-15T16:22:31.319Z,21.24
2023-08-15T16:27:23.653Z,21.22
2023-08-15T16:29:50.635Z,21.04
2023-08-15T16:32:18.487Z,20.80
2023-08-15T16:34:44.678Z,20.68
2023-08-15T16:37:10.867Z,20.60
2023-08-15T16:39:37.033Z,20.56
2023-08-15T16:42:03.233Z,20.75
2023-08-15T16:44:29.399Z,20.61
2023-08-15T16:46:55.591Z,20.37
2023-08-15T16:49:21.766Z,20.21
2023-08-15T16:51:47.948Z,20.29
2023-08-15T16:54:14.099Z,20.07
2023-08-15T16:56:40.255Z,20.11
2023-08-15T16:59:06.423Z,20.04
2023-08-15T17:01:32.587Z,20.21
2023-08-15T17:03:58.959Z,20.32
2023-08-15T17:06:25.216Z,20.46
2023-08-15T17:08:51.397Z,20.63
2023-08-15T17:11:17.555Z,20.80
2023-08-15T17:13:46.080Z,20.79
2023-08-15T17:16:13.427Z,20.68
2023-08-15T17:18:39.612Z,20.29
2023-08-15T17:21:05.766Z,20.39
2023-08-15T17:23:31.942Z,20.35
2023-08-15T17:25:58.119Z,20.29
2023-08-15T17:28:24.277Z,20.23
2023-08-15T17:30:50.497Z,20.04
2023-08-15T17:33:16.721Z,19.96
2023-08-15T17:35:42.874Z,19.83
2023-08-15T17:38:09.025Z,19.67
2023-08-15T17:40:35.215Z,19.62
2023-08-15T17:43:01.383Z,19.42
2023-08-15T17:45:27.550Z,19.44
2023-08-15T17:47:53.783Z,19.21
2023-08-15T17:50:19.958Z,19.17
2023-08-15T17:52:46.144Z,19.02
2023-08-15T17:55:12.307Z,19.02
2023-08-15T17:57:38.478Z,19.16
2023-08-15T18:00:04.645Z,19.13
2023-08-15T18:02:30.814Z,19.03
2023-08-15T18:04:56.978Z,19.01
2023-08-15T18:07:23.164Z,19.13
2023-08-15T18:09:49.328Z,19.03
2023-08-15T18:12:15.472Z,19.01
2023-08-15T18:14:41.645Z,19.14
2023-08-15T18:17:07.805Z,19.00
2023-08-15T18:19:33.968Z,18.87
2023-08-15T18:22:00.206Z,18.77
2023-08-15T18:24:26.464Z,18.67
2023-08-15T18:26:52.624Z,18.66
2023-08-15T18:29:18.786Z,18.56
2023-08-15T18:31:44.985Z,18.47
2023-08-15T18:34:11.160Z,18.34
2023-08-15T18:36:37.358Z,18.28
2023-08-15T18:39:03.510Z,18.20
2023-08-15T18:41:29.660Z,18.20
2023-08-15T18:43:55.812Z,18.40
2023-08-15T18:46:22.021Z,18.31
2023-08-15T18:48:48.247Z,18.24
2023-08-15T18:51:14.397Z,17.86
2023-08-15T18:53:40.556Z,17.85
2023-08-15T18:56:06.725Z,17.70
2023-08-15T18:58:32.886Z,17.60
2023-08-15T19:00:59.044Z,17.49
2023-08-15T19:03:25.219Z,17.47
2023-08-15T19:05:51.434Z,17.60
2023-08-15T19:08:17.582Z,17.48
2023-08-15T19:10:43.751Z,17.30
2023-08-15T19:13:09.902Z,17.10
2023-08-15T19:15:36.112Z,17.25
2023-08-15T19:18:02.344Z,17.19
2023-08-15T19:20:28.617Z,17.15
2023-08-15T19:22:54.791Z,17.15
2023-08-15T19:25:20.939Z,17.14
2023-08-15T19:27:47.148Z,17.03
2023-08-15T19:30:13.303Z,17.09
2023-08-15T19:32:39.511Z,17.02
2023-08-15T19:35:05.727Z,16.97
2023-08-15T19:37:37.904Z,16.66
2023-08-15T19:40:05.131Z,16.65
2023-08-15T19:42:31.312Z,16.51
2023-08-15T19:44:57.472Z,16.54
2023-08-15T19:47:23.636Z,16.54
2023-08-15T19:49:49.800Z,16.70
2023-08-15T19:52:15.969Z,16.63
2023-08-15T19:54:42.182Z,16.37
2023-08-15T19:57:08.401Z,16.38
2023-08-15T19:59:34.563Z,16.38
2023-08-15T20:02:00.757Z,16.16
2023-08-15T20:04:26.984Z,16.04
2023-08-15T20:06:53.160Z,16.02
2023-08-15T20:09:19.311Z,16.10
2023-08-15T20:11:45.459Z,16.00
2023-08-15T20:14:11.617Z,16.01
2023-08-15T20:16:37.869Z,15.99
2023-08-15T20:19:04.054Z,15.84
2023-08-15T20:21:30.227Z,15.83
2023-08-15T20:23:56.376Z,15.81
2023-08-15T20:26:22.537Z,15.93
2023-08-15T20:28:48.712Z,15.91
2023-08-15T20:31:14.916Z,15.92
2023-08-15T20:33:41.099Z,15.86
2023-08-15T20:36:07.242Z,15.80
2023-08-15T20:38:33.408Z,15.77
2023-08-15T20:40:59.579Z,15.72
2023-08-15T20:43:25.747Z,15.69
2023-08-15T20:45:51.914Z,15.57
2023-08-15T20:48:18.864Z,15.61
2023-08-15T20:50:45.063Z,15.73
2023-08-15T20:53:11.213Z,15.85
2023-08-15T20:55:37.365Z,15.94
2023-08-15T20:58:03.527Z,15.79
2023-08-15T21:00:29.706Z,15.59
2023-08-15T21:02:55.911Z,15.57
2023-08-15T21:05:22.115Z,15.54
2023-08-15T21:07:48.297Z,15.62
2023-08-15T21:10:14.486Z,15.53
2023-08-15T21:12:40.687Z,15.52
2023-08-15T21:15:06.858Z,15.54
2023-08-15T21:17:33.080Z,15.41
2023-08-15T21:19:59.274Z,15.45
2023-08-15T21:22:25.448Z,15.51
2023-08-15T21:24:51.618Z,15.67
2023-08-15T21:27:17.800Z,15.55
2023-08-15T21:29:43.958Z,15.53
2023-08-15T21:32:10.125Z,15.49
2023-08-15T21:34:36.294Z,15.52
2023-08-15T21:37:02.461Z,15.36
2023-08-15T21:39:28.626Z,15.38
2023-08-15T21:41:54.792Z,15.37
2023-08-15T21:44:20.933Z,15.44
2023-08-15T21:46:47.094Z,15.35
2023-08-15T21:49:13.251Z,15.30
2023-08-15T21:51:39.398Z,15.29
2023-08-15T21:54:05.561Z,15.19
2023-08-15T21:56:31.920Z,15.17
2023-08-15T21:58:58.142Z,15.20
2023-08-15T22:01:24.310Z,15.34
2023-08-15T22:03:50.678Z,15.07
2023-08-15T22:06:16.936Z,14.96
2023-08-15T22:08:43.145Z,14.98
2023-08-15T22:11:09.314Z,15.01
2023-08-15T22:13:35.492Z,14.91
2023-08-15T22:16:01.687Z,14.80
2023-08-15T22:18:28.018Z,14.89
2023-08-15T22:20:54.262Z,14.92
2023-08-15T22:23:20.410Z,14.89
2023-08-15T22:25:46.570Z,14.89
2023-08-15T22:28:12.721Z,15.01
2023-08-15T22:30:38.881Z,15.15
2023-08-15T22:33:05.121Z,15.29
2023-08-15T22:35:31.333Z,15.27
2023-08-15T22:37:57.489Z,15.28
2023-08-15T22:40:23.640Z,15.08
2023-08-15T22:42:49.800Z,15.00
2023-08-15T22:45:15.966Z,14.90
2023-08-15T22:47:42.197Z,14.89
2023-08-15T22:50:08.394Z,14.82
2023-08-15T22:52:34.627Z,14.54
2023-08-15T22:55:00.797Z,14.52
2023-08-15T22:57:28.031Z,14.34
2023-08-15T22:59:54.189Z,14.22
2023-08-15T23:02:20.352Z,14.07
2023-08-15T23:04:46.531Z,14.11
2023-08-15T23:07:12.729Z,13.98
2023-08-15T23:09:38.905Z,14.08
2023-08-15T23:12:05.049Z,14.26
2023-08-15T23:14:31.188Z,14.37
2023-08-15T23:16:57.366Z,14.45
2023-08-15T23:19:23.532Z,14.42
2023-08-15T23:21:49.700Z,14.42
2023-08-15T23:24:15.858Z,14.32
2023-08-15T23:26:42.017Z,14.24
2023-08-15T23:29:08.176Z,14.24
2023-08-15T23:31:34.389Z,14.10
2023-08-15T23:34:00.601Z,14.00
2023-08-15T23:36:26.766Z,13.95
2023-08-15T23:38:52.951Z,13.91
2023-08-15T23:41:19.110Z,13.88
2023-08-15T23:43:45.284Z,13.78
2023-08-15T23:46:11.491Z,13.85
2023-08-15T23:48:37.717Z,14.14
2023-08-15T23:51:03.895Z,14.28
2023-08-15T23:53:30.046Z,14.25
2023-08-15T23:55:56.210Z,14.27
2023-08-15T23:58:22.378Z,14.35
